Time;durP1;ratioP1;P1;durP2;ratioP2;P2;SDS_P1;SDS_P2;PMS_P1;PMS_P2;Temp;Humidity;BMP_temperature;BMP_pressure;BME280_temperature;BME280_humidity;BME280_pressure;Samples;Min_cycle;Max_cycle;Signal;HPM_P1;HPM_P2
2022/07/09 00:02:24;;;;;;;21.33;16.67;;;;;;;16.20;100.00;68574.00;5051860;28;20047;-78
2022/07/09 00:04:50;;;;;;;21.58;16.42;;;;;;;16.18;100.00;68564.22;5064888;28;20308;-78
2022/07/09 00:07:15;;;;;;;22.90;17.55;;;;;;;16.18;100.00;68563.66;5067040;28;20040;-78
2022/07/09 00:09:41;;;;;;;25.63;20.30;;;;;;;16.14;100.00;68561.78;5068729;28;20147;-78
2022/07/09 00:12:07;;;;;;;23.38;17.90;;;;;;;16.12;100.00;68564.88;5066894;28;20074;-77
2022/07/09 00:14:32;;;;;;;24.50;19.75;;;;;;;16.09;100.00;68561.47;5068777;28;20037;-78
2022/07/09 00:16:57;;;;;;;28.25;18.20;;;;;;;16.11;100.00;68564.31;5060040;28;20052;-76
2022/07/09 00:19:23;;;;;;;22.00;16.65;;;;;;;;;;5068534;28;20040;-78
2022/07/09 00:21:48;;;;;;;20.30;16.23;;;;;;;15.94;100.00;68544.91;5067810;28;20074;-77
2022/07/09 00:24:13;;;;;;;22.20;15.63;;;;;;;15.88;100.00;68532.72;5065112;28;20325;-77
2022/07/09 00:26:39;;;;;;;19.02;15.15;;;;;;;15.90;100.00;68535.56;5055553;28;20045;-76
2022/07/09 00:29:04;;;;;;;22.00;16.08;;;;;;;15.89;100.00;68533.88;5065769;28;20163;-75
2022/07/09 00:31:30;;;;;;;22.55;15.90;;;;;;;15.93;100.00;68538.41;5066543;28;20051;-76
2022/07/09 00:33:55;;;;;;;19.38;15.35;;;;;;;15.87;100.00;68537.50;5067424;28;20045;-76
2022/07/09 00:36:20;;;;;;;19.02;15.35;;;;;;;;;;5064480;28;20067;-77
2022/07/09 00:38:45;;;;;;;19.77;16.48;;;;;;;;;;5067152;28;20083;-78
2022/07/09 00:41:11;;;;;;;24.02;16.58;;;;;;;;;;5049298;28;20131;-77
2022/07/09 00:43:36;;;;;;;21.27;15.50;;;;;;;15.74;100.00;68517.34;5074304;28;20049;-77
2022/07/09 00:46:02;;;;;;;20.10;14.90;;;;;;;15.68;100.00;68515.84;5069217;28;20271;-78
2022/07/09 00:48:27;;;;;;;22.42;15.45;;;;;;;;;;5071090;28;20041;-77
2022/07/09 00:50:53;;;;;;;17.48;14.63;;;;;;;15.63;100.00;68504.78;5067844;28;20060;-76
2022/07/09 00:53:24;;;;;;;17.85;14.43;;;;;;;15.61;100.00;68503.06;5062790;28;20056;-78
2022/07/09 00:55:49;;;;;;;21.80;15.30;;;;;;;;;;5064082;28;20040;-78
2022/07/09 00:58:17;;;;;;;19.75;15.07;;;;;;;15.50;100.00;68496.47;5063582;28;20052;-77
2022/07/09 01:00:43;;;;;;;21.52;15.55;;;;;;;;;;5068811;28;20055;-77
2022/07/09 01:03:08;;;;;;;20.88;16.38;;;;;;;;;;5068805;28;20044;-77
2022/07/09 01:05:37;;;;;;;18.88;14.80;;;;;;;15.47;100.00;68487.13;5068266;28;20445;-78
2022/07/09 01:08:07;;;;;;;19.40;14.80;;;;;;;15.39;100.00;68478.56;5068988;28;20060;-76
2022/07/09 01:10:33;;;;;;;22.20;15.55;;;;;;;;;;5068731;28;20048;-77
2022/07/09 01:12:58;;;;;;;19.38;14.60;;;;;;;;;;5068551;28;20041;-77
2022/07/09 01:15:24;;;;;;;20.33;15.73;;;;;;;15.30;100.00;68474.25;5067894;28;20094;-78
2022/07/09 01:17:51;;;;;;;21.92;16.58;;;;;;;15.25;100.00;68459.97;5060853;28;20045;-76
2022/07/09 01:20:28;;;;;;;21.85;15.82;;;;;;;15.18;100.00;68460.59;5066539;28;20036;-78
2022/07/09 01:22:54;;;;;;;19.58;15.27;;;;;;;15.15;100.00;68456.59;5068331;28;20045;-77
2022/07/09 01:25:30;;;;;;;24.40;17.13;;;;;;;15.25;100.00;68459.97;5070183;28;20549;-78
2022/07/09 01:27:55;;;;;;;24.63;17.42;;;;;;;;;;5064159;28;20040;-77
2022/07/09 01:30:26;;;;;;;23.83;15.77;;;;;;;15.15;100.00;68456.59;5067731;28;20044;-78
2022/07/09 01:32:52;;;;;;;20.83;15.35;;;;;;;15.18;100.00;68460.03;5062140;28;20283;-77
2022/07/09 01:35:17;;;;;;;21.58;16.05;;;;;;;15.12;100.00;68454.31;5068161;28;20056;-78
2022/07/09 01:37:43;;;;;;;22.80;16.17;;;;;;;15.21;100.00;68458.06;5066682;28;20052;-77
2022/07/09 01:40:08;;;;;;;21.08;15.75;;;;;;;;;;5083805;28;20040;-77
2022/07/09 01:42:34;;;;;;;21.45;15.80;;;;;;;15.15;100.00;68456.59;5068184;28;20033;-78
2022/07/09 01:44:59;;;;;;;21.58;16.10;;;;;;;15.12;100.00;68453.75;5067872;28;20037;-77
2022/07/09 01:47:24;;;;;;;23.75;16.73;;;;;;;;;;5067784;28;20098;-78
2022/07/09 01:49:50;;;;;;;18.90;15.02;;;;;;;;;;5068489;28;20119;-78
2022/07/09 01:52:15;;;;;;;19.90;14.50;;;;;;;15.02;100.00;68442.38;5067053;28;20442;-79
2022/07/09 01:54:40;;;;;;;19.45;14.02;;;;;;;14.95;100.00;68434.97;5068719;28;20358;-79
2022/07/09 01:57:06;;;;;;;17.23;14.13;;;;;;;14.93;100.00;68432.13;5070712;28;20047;-78
2022/07/09 01:59:31;;;;;;;15.93;13.10;;;;;;;14.86;100.00;68419.34;5069793;28;20079;-78
2022/07/09 02:01:57;;;;;;;17.33;13.32;;;;;;;14.80;100.00;68412.53;5067511;28;20083;-79
2022/07/09 02:04:22;;;;;;;17.13;13.70;;;;;;;14.77;100.00;68409.69;5067439;28;20071;-78
2022/07/09 02:06:47;;;;;;;16.10;13.80;;;;;;;;;;5068399;28;20032;-78
2022/07/09 02:09:13;;;;;;;17.90;12.87;;;;;;;;;;5067350;28;20036;-79
2022/07/09 02:11:38;;;;;;;19.80;13.82;;;;;;;14.62;100.00;68393.19;5067669;28;20286;-78
2022/07/09 02:14:04;;;;;;;17.38;13.68;;;;;;;14.56;100.00;68391.69;5067948;28;20036;-78
2022/07/09 02:16:29;;;;;;;19.13;13.73;;;;;;;14.53;100.00;68388.28;5068522;28;20043;-78
2022/07/09 02:18:55;;;;;;;16.98;12.95;;;;;;;14.48;100.00;68377.22;5068950;28;20120;-78
2022/07/09 02:21:20;;;;;;;18.20;12.95;;;;;;;14.42;100.00;68375.75;5067444;28;20045;-79
2022/07/09 02:23:46;;;;;;;17.20;13.05;;;;;;;;;;5069049;28;20048;-79
2022/07/09 02:26:12;;;;;;;19.38;13.02;;;;;;;14.39;100.00;68372.91;5067911;28;20056;-78
2022/07/09 02:28:37;;;;;;;17.50;13.13;;;;;;;;;;5068192;28;20067;-77
2022/07/09 02:31:02;;;;;;;15.32;12.90;;;;;;;;;;5066623;28;20051;-79
2022/07/09 02:33:30;;;;;;;19.77;13.98;;;;;;;14.28;100.00;68360.38;5074075;28;20068;-77
2022/07/09 02:35:55;;;;;;;18.48;14.65;;;;;;;;;;5067985;28;20062;-79
2022/07/09 02:38:21;;;;;;;19.85;16.10;;;;;;;14.22;100.00;68354.13;5067013;28;20517;-79
2022/07/09 02:40:47;;;;;;;20.08;15.13;;;;;;;;;;5065816;28;20078;-78
2022/07/09 02:43:12;;;;;;;19.20;15.18;;;;;;;14.17;100.00;68348.41;5067112;28;20386;-78
2022/07/09 02:45:37;;;;;;;18.85;14.52;;;;;;;;;;5067747;28;20503;-78
2022/07/09 02:48:02;;;;;;;30.67;20.13;;;;;;;14.24;100.00;68361.16;5067046;28;20041;-79
2022/07/09 02:50:28;;;;;;;25.60;17.98;;;;;;;14.35;100.00;68367.75;5068016;28;20037;-78
2022/07/09 02:52:53;;;;;;;27.17;16.35;;;;;;;14.35;100.00;68367.75;5071368;28;20694;-78
2022/07/09 02:55:19;;;;;;;24.70;17.75;;;;;;;14.35;100.00;68368.34;5079732;28;20101;-78
2022/07/09 02:57:44;;;;;;;25.70;15.98;;;;;;;;;;5083697;28;20044;-77
2022/07/09 03:00:09;;;;;;;21.03;16.07;;;;;;;;;;5066231;28;20516;-78
2022/07/09 03:02:34;;;;;;;25.20;19.27;;;;;;;;;;5065341;28;20286;-78
2022/07/09 03:05:00;;;;;;;19.20;15.57;;;;;;;14.42;100.00;68370.38;5087117;22;20162;-77
2022/07/09 03:07:26;;;;;;;23.15;16.67;;;;;;;;;;5066474;28;20282;-77
2022/07/09 03:09:51;;;;;;;25.08;18.50;;;;;;;;;;5065171;28;20056;-76
2022/07/09 03:12:16;;;;;;;24.38;17.58;;;;;;;;;;5065155;28;20042;-77
2022/07/09 03:14:41;;;;;;;27.67;18.48;;;;;;;;;;5065065;28;20049;-77
2022/07/09 03:17:07;;;;;;;25.63;19.73;;;;;;;14.43;100.00;68376.88;5065436;28;20074;-77
2022/07/09 03:19:32;;;;;;;27.65;18.13;;;;;;;14.39;100.00;68372.34;5065986;28;20033;-77
2022/07/09 03:21:57;;;;;;;23.58;18.10;;;;;;;;;;5056872;28;20162;-75
2022/07/09 03:24:23;;;;;;;26.13;19.90;;;;;;;14.37;100.00;68364.69;5066747;28;20153;-77
2022/07/09 03:26:49;;;;;;;28.52;19.73;;;;;;;14.36;100.00;68363.56;5065416;28;20141;-77
2022/07/09 03:29:14;;;;;;;27.27;20.13;;;;;;;;;;5061902;28;20131;-77
2022/07/09 03:31:39;;;;;;;28.20;20.13;;;;;;;14.33;100.00;68366.06;5062715;28;20051;-77
2022/07/09 03:34:05;;;;;;;24.13;19.52;;;;;;;14.31;100.00;68357.88;5064079;28;20040;-77
2022/07/09 03:36:31;;;;;;;30.00;20.98;;;;;;;;;;5065927;28;20047;-77
2022/07/09 03:38:56;;;;;;;30.58;20.17;;;;;;;14.35;100.00;68367.75;5066904;28;20428;-76
2022/07/09 03:41:21;;;;;;;27.77;18.67;;;;;;;;;;5064608;28;20040;-77
2022/07/09 03:43:47;;;;;;;29.75;21.38;;;;;;;14.40;100.00;68374.03;5064002;28;20044;-75
2022/07/09 03:46:12;;;;;;;29.40;20.58;;;;;;;;;;5065590;28;20049;-76
2022/07/09 03:48:37;;;;;;;31.48;21.55;;;;;;;14.43;100.00;68376.88;5069679;28;20040;-77
2022/07/09 03:51:03;;;;;;;27.63;19.85;;;;;;;;;;5077851;28;20052;-75
2022/07/09 03:53:28;;;;;;;30.27;20.67;;;;;;;14.44;100.00;68372.66;5077508;28;20049;-77
2022/07/09 03:55:53;;;;;;;27.33;20.70;;;;;;;;;;5064719;28;20127;-76
2022/07/09 03:58:18;;;;;;;23.50;18.25;;;;;;;;;;5064332;28;20059;-76
2022/07/09 04:00:44;;;;;;;27.30;20.55;;;;;;;14.56;100.00;68391.69;5062069;28;20624;-76
2022/07/09 04:03:09;;;;;;;26.65;20.25;;;;;;;14.59;100.00;68394.56;5065654;28;20139;-77
2022/07/09 04:05:35;;;;;;;26.85;20.02;;;;;;;14.55;100.00;68390.56;5065393;28;20501;-76
2022/07/09 04:08:00;;;;;;;28.27;20.08;;;;;;;14.59;100.00;68395.13;5066980;28;20045;-76
2022/07/09 04:10:26;;;;;;;27.30;19.15;;;;;;;14.58;100.00;68393.41;5065403;28;20036;-78
2022/07/09 04:12:51;;;;;;;27.30;19.27;;;;;;;;;;5067857;28;20552;-78
2022/07/09 04:15:16;;;;;;;27.85;18.98;;;;;;;;;;5067464;28;20404;-76
2022/07/09 04:17:42;;;;;;;25.60;19.60;;;;;;;;;;5069420;28;20492;-76
2022/07/09 04:20:08;;;;;;;26.13;19.45;;;;;;;14.67;100.00;68398.28;5067421;28;20040;-76
2022/07/09 04:22:33;;;;;;;26.80;19.85;;;;;;;;;;5069271;28;20041;-76
2022/07/09 04:24:59;;;;;;;28.10;20.10;;;;;;;14.73;100.00;68412.59;5068123;28;20496;-76
2022/07/09 04:27:24;;;;;;;25.40;18.75;;;;;;;14.78;100.00;68416.16;5070329;28;20044;-77
2022/07/09 04:29:50;;;;;;;27.58;18.40;;;;;;;;;;5067831;28;20045;-78
2022/07/09 04:32:15;;;;;;;27.80;18.42;;;;;;;14.77;100.00;68417.16;5066725;28;20699;-76
2022/07/09 04:34:41;;;;;;;27.88;18.63;;;;;;;14.77;100.00;68415.03;5065856;28;20032;-76
2022/07/09 04:37:06;;;;;;;27.50;18.02;;;;;;;;;;5069032;28;20147;-76
2022/07/09 04:39:32;;;;;;;24.25;17.80;;;;;;;14.89;100.00;68428.13;5068036;28;20194;-76
2022/07/09 04:41:58;;;;;;;22.75;17.42;;;;;;;14.93;100.00;68427.31;5068311;28;20037;-75
2022/07/09 04:44:23;;;;;;;24.70;19.10;;;;;;;14.96;100.00;68430.75;5068596;28;20068;-77
2022/07/09 04:46:48;;;;;;;24.75;16.27;;;;;;;14.93;100.00;68435.34;5068714;28;20048;-76
2022/07/09 04:49:14;;;;;;;24.98;17.00;;;;;;;14.99;100.00;68433.59;5067696;28;20032;-76
2022/07/09 04:51:39;;;;;;;26.73;16.83;;;;;;;14.98;100.00;68438.38;5066606;28;20060;-77
2022/07/09 04:54:05;;;;;;;26.67;17.67;;;;;;;14.98;100.00;68438.38;5067101;28;20036;-80
2022/07/09 04:56:30;;;;;;;24.52;16.55;;;;;;;15.04;100.00;68444.63;5068653;28;20059;-76
2022/07/09 04:58:55;;;;;;;23.08;16.35;;;;;;;;;;5048634;28;20122;-77
2022/07/09 05:01:22;;;;;;;23.70;16.15;;;;;;;15.08;100.00;68449.78;5045989;28;20048;-76
2022/07/09 05:03:48;;;;;;;28.98;17.17;;;;;;;15.09;100.00;68450.91;5047714;28;20136;-78
2022/07/09 05:06:15;;;;;;;24.80;16.15;;;;;;;15.15;100.00;68457.16;5067704;28;20113;-76
2022/07/09 05:08:41;;;;;;;25.08;15.75;;;;;;;;;;5062812;28;20045;-76
2022/07/09 05:11:06;;;;;;;24.20;16.65;;;;;;;15.14;100.00;68455.47;5067154;28;20377;-78
2022/07/09 05:13:32;;;;;;;25.60;17.38;;;;;;;15.24;100.00;68462.06;5068207;28;20067;-76
2022/07/09 05:15:57;;;;;;;20.58;14.63;;;;;;;;;;5067018;28;20029;-78
2022/07/09 05:18:22;;;;;;;23.20;16.60;;;;;;;;;;5065567;28;20133;-76
2022/07/09 05:20:48;;;;;;;20.50;15.77;;;;;;;15.30;100.00;68468.88;5063196;28;20048;-77
2022/07/09 05:23:13;;;;;;;21.65;14.85;;;;;;;;;;5055306;28;20051;-77
2022/07/09 05:25:38;;;;;;;21.45;15.40;;;;;;;15.31;100.00;68466.78;5058077;28;20048;-76
2022/07/09 05:28:04;;;;;;;20.58;15.20;;;;;;;;;;5060800;28;20033;-78
2022/07/09 05:30:29;;;;;;;23.98;16.25;;;;;;;;;;5057627;28;20041;-80
2022/07/09 05:32:54;;;;;;;22.48;14.23;;;;;;;15.42;100.00;68482.00;5055222;28;20055;-77
2022/07/09 05:35:20;;;;;;;24.45;16.02;;;;;;;15.42;100.00;68478.75;5056864;28;20040;-76
2022/07/09 05:37:45;;;;;;;23.23;14.18;;;;;;;15.40;100.00;68485.09;5067807;28;20036;-76
2022/07/09 05:40:11;;;;;;;26.40;16.17;;;;;;;15.38;100.00;68482.22;5065901;28;20032;-78
2022/07/09 05:42:37;;;;;;;21.90;14.70;;;;;;;;;;5064702;28;20097;-76
2022/07/09 05:45:02;;;;;;;20.35;14.68;;;;;;;;;;5067611;28;20044;-76
2022/07/09 05:47:28;;;;;;;19.70;14.23;;;;;;;15.61;100.00;68507.88;5067614;28;20681;-77
2022/07/09 05:49:53;;;;;;;24.20;14.80;;;;;;;;;;5074943;28;20039;-75
2022/07/09 05:52:18;;;;;;;22.02;14.77;;;;;;;15.71;100.00;68513.94;5067622;28;20090;-76
2022/07/09 05:54:44;;;;;;;21.95;15.38;;;;;;;;;;5068498;28;20124;-77
2022/07/09 05:57:09;;;;;;;21.30;15.85;;;;;;;15.79;100.00;68528.97;5066985;28;20028;-76
2022/07/09 05:59:35;;;;;;;20.30;14.45;;;;;;;15.89;100.00;68533.88;5066348;28;20044;-77
2022/07/09 06:02:02;;;;;;;21.42;14.13;;;;;;;15.97;100.00;68548.91;5061989;28;20060;-76
2022/07/09 06:04:28;;;;;;;21.00;13.85;;;;;;;;;;5065518;28;20154;-76
2022/07/09 06:06:53;;;;;;;18.95;13.70;;;;;;;;;;5067324;28;20520;-78
2022/07/09 06:09:18;;;;;;;20.90;12.80;;;;;;;16.03;100.00;68555.19;5065989;28;20040;-76
2022/07/09 06:11:44;;;;;;;22.15;14.02;;;;;;;16.08;100.00;68554.94;5066279;28;20281;-77
2022/07/09 06:14:09;;;;;;;18.75;12.50;;;;;;;16.06;100.00;68558.03;5065881;28;20517;-76
2022/07/09 06:16:34;;;;;;;20.10;13.60;;;;;;;16.22;100.00;68576.25;5063447;28;20098;-79
2022/07/09 06:19:00;;;;;;;18.55;12.85;;;;;;;16.28;100.00;68583.09;5064350;28;20072;-77
2022/07/09 06:21:25;;;;;;;18.33;12.77;;;;;;;16.29;100.00;68578.88;5064229;28;20119;-78
2022/07/09 06:23:51;;;;;;;17.55;13.40;;;;;;;16.42;100.00;68593.13;5066604;28;20094;-77
2022/07/09 06:26:16;;;;;;;18.77;13.15;;;;;;;;;;5065497;28;20032;-79
2022/07/09 06:28:41;;;;;;;19.27;13.00;;;;;;;16.64;100.00;68615.53;5067155;28;20079;-76
2022/07/09 06:31:07;;;;;;;18.52;11.45;;;;;;;16.67;100.00;68626.44;5065169;28;20366;-75
2022/07/09 06:33:32;;;;;;;14.95;11.55;;;;;;;16.72;100.00;68632.16;5063061;28;20131;-79
2022/07/09 06:35:57;;;;;;;17.40;11.05;;;;;;;16.76;100.00;68636.13;5065869;28;20123;-76
2022/07/09 06:38:23;;;;;;;15.20;10.00;;;;;;;16.79;100.00;68634.19;5067083;28;20086;-76
2022/07/09 06:40:48;;;;;;;16.52;11.25;;;;;;;16.88;100.00;68645.03;5065270;28;20101;-80
2022/07/09 06:43:14;;;;;;;16.73;10.98;;;;;;;17.00;100.00;68657.56;5063567;28;20517;-78
2022/07/09 06:45:39;;;;;;;14.93;9.68;;;;;;;16.96;100.00;68658.41;5066173;28;20033;-76
2022/07/09 06:48:05;;;;;;;13.70;10.88;;;;;;;17.06;100.00;68664.41;5067758;28;20041;-81
2022/07/09 06:50:30;;;;;;;14.63;10.88;;;;;;;17.11;100.00;68667.44;5065413;28;20115;-76
2022/07/09 06:52:55;;;;;;;15.30;10.63;;;;;;;;;;5067508;28;20050;-76
2022/07/09 06:55:21;;;;;;;14.95;10.52;;;;;;;17.25;100.00;68686.09;5066200;28;20443;-81
2022/07/09 06:57:47;;;;;;;13.90;9.25;;;;;;;17.26;100.00;68692.03;5063270;28;20055;-80
2022/07/09 07:00:13;;;;;;;15.48;10.60;;;;;;;17.26;100.00;68686.66;5065875;28;20037;-77
2022/07/09 07:02:39;;;;;;;13.55;9.70;;;;;;;17.30;100.00;68691.22;5065085;28;20168;-75
2022/07/09 07:05:05;;;;;;;17.20;10.02;;;;;;;;;;5066171;28;20576;-76
2022/07/09 07:07:30;;;;;;;16.45;10.70;;;;;;;;;;5065557;28;20052;-76
2022/07/09 07:09:56;;;;;;;18.33;10.52;;;;;;;17.50;100.00;68714.06;5065687;28;20047;-77
2022/07/09 07:12:21;;;;;;;15.13;9.77;;;;;;;17.57;100.00;68718.75;5062916;28;20577;-77
2022/07/09 07:14:46;;;;;;;13.20;10.15;;;;;;;;;;5062258;28;20401;-75
2022/07/09 07:17:12;;;;;;;13.95;9.75;;;;;;;17.61;100.00;68726.03;5063690;28;20492;-80
2022/07/09 07:19:37;;;;;;;15.00;10.20;;;;;;;17.60;100.00;68724.88;5062721;28;20051;-74
2022/07/09 07:22:02;;;;;;;14.25;10.02;;;;;;;17.63;100.00;68728.31;5065330;28;20056;-75
2022/07/09 07:24:30;;;;;;;14.80;10.63;;;;;;;17.78;100.00;68740.06;5059810;28;20147;-77
2022/07/09 07:26:56;;;;;;;12.98;8.75;;;;;;;17.92;100.00;68766.22;5063651;28;20039;-76
2022/07/09 07:29:22;;;;;;;10.65;7.38;;;;;;;17.99;99.32;68768.28;5062254;28;20492;-75
2022/07/09 07:31:47;;;;;;;10.50;6.10;;;;;;;17.99;97.53;68765.59;5064191;28;20102;-76
2022/07/09 07:34:12;;;;;;;8.45;5.35;;;;;;;18.13;96.91;68783.69;5065283;28;20086;-81
2022/07/09 07:36:38;;;;;;;8.15;5.28;;;;;;;18.31;94.96;68803.66;5066008;28;20060;-76
2022/07/09 07:39:03;;;;;;;7.60;5.18;;;;;;;;;;5065215;28;20052;-75
2022/07/09 07:41:28;;;;;;;10.40;6.38;;;;;;;18.51;94.59;68825.94;5062726;28;20094;-78
2022/07/09 07:43:54;;;;;;;10.95;5.95;;;;;;;18.57;95.53;68833.34;5064952;28;20036;-77
2022/07/09 07:46:19;;;;;;;8.60;5.30;;;;;;;18.62;93.41;68833.66;5067266;28;20207;-77
2022/07/09 07:48:44;;;;;;;9.00;6.13;;;;;;;18.83;93.20;68862.50;5069644;28;20047;-75
2022/07/09 07:51:10;;;;;;;4.00;2.78;;;;;;;18.86;89.10;68865.34;5065314;28;20044;-75
2022/07/09 07:53:36;;;;;;;6.50;4.38;;;;;;;;;;5069075;28;20068;-76
2022/07/09 07:56:05;;;;;;;5.03;3.45;;;;;;;19.02;87.82;68883.03;5069548;28;20060;-79
2022/07/09 07:58:31;;;;;;;5.75;3.20;;;;;;;19.07;87.63;68889.31;5068036;28;20044;-76
2022/07/09 08:00:57;;;;;;;5.63;3.67;;;;;;;19.16;86.28;68894.22;5066505;28;20066;-76
2022/07/09 08:03:22;;;;;;;6.68;4.85;;;;;;;19.36;87.64;68919.19;5069083;28;20024;-76
2022/07/09 08:05:48;;;;;;;5.25;3.17;;;;;;;19.29;84.80;68910.63;5068176;28;20071;-77
2022/07/09 08:08:13;;;;;;;6.35;3.75;;;;;;;19.21;84.93;68898.78;5068444;28;20036;-78
2022/07/09 08:10:38;;;;;;;6.68;3.42;;;;;;;19.27;85.33;68908.34;5067923;28;20488;-81
2022/07/09 08:13:04;;;;;;;6.07;3.63;;;;;;;19.46;85.53;68930.06;5068428;28;20660;-78
2022/07/09 08:15:30;;;;;;;7.40;3.80;;;;;;;19.52;85.72;68945.00;5055474;28;20056;-79
2022/07/09 08:17:55;;;;;;;6.47;3.35;;;;;;;19.66;84.70;68955.06;5083022;28;20463;-76
2022/07/09 08:20:21;;;;;;;4.80;3.30;;;;;;;19.75;83.37;68965.34;5064959;28;20040;-78
2022/07/09 08:22:46;;;;;;;6.35;4.28;;;;;;;19.70;83.07;68959.06;5068658;28;20074;-76
2022/07/09 08:25:13;;;;;;;5.22;3.05;;;;;;;19.74;81.97;68963.63;5069020;28;20369;-76
2022/07/09 08:27:38;;;;;;;5.22;3.60;;;;;;;;;;5066843;28;20072;-77
2022/07/09 08:30:04;;;;;;;7.07;3.23;;;;;;;19.69;82.32;68955.78;5088842;28;20070;-78
2022/07/09 08:32:30;;;;;;;5.70;3.03;;;;;;;19.84;82.42;68972.34;5066261;28;20279;-77
2022/07/09 08:34:55;;;;;;;6.80;3.58;;;;;;;19.91;82.39;68983.06;5068868;28;20033;-78
2022/07/09 08:37:20;;;;;;;4.72;3.40;;;;;;;20.00;80.91;68992.78;5069918;28;20097;-79
2022/07/09 08:39:46;;;;;;;6.97;3.67;;;;;;;19.90;82.21;68981.91;5068947;28;20086;-76
2022/07/09 08:42:11;;;;;;;5.75;3.45;;;;;;;19.96;81.82;68982.78;5069749;28;20559;-76
2022/07/09 08:44:42;;;;;;;6.40;3.53;;;;;;;;;;5069061;28;20079;-79
2022/07/09 08:47:10;;;;;;;5.30;2.90;;;;;;;20.09;81.18;69002.50;5068671;28;20044;-76
2022/07/09 08:49:37;;;;;;;5.13;3.07;;;;;;;20.08;79.45;68995.94;5067910;28;20043;-78
2022/07/09 08:52:03;;;;;;;5.65;2.72;;;;;;;20.05;79.39;68995.78;5066260;28;20043;-78
2022/07/09 08:54:29;;;;;;;4.53;2.55;;;;;;;20.12;79.06;69005.94;5068425;28;20097;-76
2022/07/09 08:56:55;;;;;;;4.53;2.75;;;;;;;;;;5069437;28;20043;-80
2022/07/09 08:59:20;;;;;;;6.03;2.47;;;;;;;20.01;78.15;68991.22;5064935;28;20040;-79
2022/07/09 09:01:45;;;;;;;5.10;2.80;;;;;;;20.08;78.48;69001.34;5068418;28;20400;-79
2022/07/09 09:06:42;;;;;;;4.07;2.57;;;;;;;19.97;77.59;68989.34;5064673;28;20056;-81
2022/07/09 09:09:08;;;;;;;5.65;3.53;;;;;;;19.94;77.83;68986.50;5066515;28;20040;-80
2022/07/09 09:11:37;;;;;;;3.47;2.47;;;;;;;19.95;78.15;68981.66;5064737;28;20052;-80
2022/07/09 09:14:03;;;;;;;;;;;;;;;20.01;77.95;68994.47;5070427;28;20037;-80
2022/07/09 09:16:29;;;;;;;5.85;3.10;;;;;;;20.15;78.32;69006.66;5047104;28;19927;-79
2022/07/09 09:19:08;;;;;;;5.60;3.70;;;;;;;20.14;77.41;69008.19;5055011;28;20040;-79
2022/07/09 09:21:41;;;;;;;5.32;3.08;;;;;;;20.14;78.22;69003.38;5050314;28;20052;-79
2022/07/09 09:24:07;;;;;;;6.20;3.55;;;;;;;20.24;78.26;69017.50;5058313;28;20067;-78
2022/07/09 09:26:35;;;;;;;7.55;4.05;;;;;;;20.43;78.33;69038.09;5047638;28;20049;-78
2022/07/09 09:29:02;;;;;;;7.97;4.00;;;;;;;20.49;77.33;69048.22;5047334;28;20094;-78
2022/07/09 09:31:33;;;;;;;6.78;3.75;;;;;;;20.38;77.54;69030.25;5044731;28;20275;-78
2022/07/09 09:34:10;;;;;;;7.45;4.32;;;;;;;20.50;77.26;69046.09;5047777;28;20539;-76
2022/07/09 09:36:37;;;;;;;7.95;4.35;;;;;;;20.59;77.96;69058.53;5041145;28;20044;-77
2022/07/09 09:39:09;;;;;;;6.35;3.90;;;;;;;20.58;77.33;69062.81;5045174;28;20056;-78
2022/07/09 09:41:35;;;;;;;5.70;3.72;;;;;;;20.64;78.62;69064.81;5047217;28;20076;-78
2022/07/09 09:44:05;;;;;;;7.47;4.82;;;;;;;20.55;78.12;69054.53;5048920;28;20099;-78
2022/07/09 09:46:34;;;;;;;8.77;4.70;;;;;;;20.43;77.98;69035.97;5048316;28;20052;-78
2022/07/09 09:49:00;;;;;;;7.47;4.68;;;;;;;20.49;78.73;69045.53;5049281;28;20099;-76
2022/07/09 09:51:30;;;;;;;8.57;4.82;;;;;;;20.54;78.38;69052.81;5049019;28;21777;-78
2022/07/09 09:53:57;;;;;;;10.48;5.13;;;;;;;20.58;78.34;69054.69;5050404;28;20099;-79
2022/07/09 09:56:24;;;;;;;8.07;4.57;;;;;;;20.62;78.20;69061.97;5050264;28;20033;-80
2022/07/09 09:58:50;;;;;;;7.53;4.50;;;;;;;20.70;78.33;69065.72;5049448;28;20045;-80
2022/07/09 10:01:15;;;;;;;6.50;4.53;;;;;;;20.79;78.45;69076.00;5047397;28;20037;-78
2022/07/09 10:03:41;;;;;;;7.25;4.13;;;;;;;20.89;78.65;69089.59;5049093;28;20049;-80
2022/07/09 10:06:06;;;;;;;7.57;4.65;;;;;;;20.98;77.26;69096.59;5049190;28;20037;-79
2022/07/09 10:08:32;;;;;;;5.38;4.00;;;;;;;20.93;78.08;69097.41;5047791;28;20041;-78
2022/07/09 10:10:58;;;;;;;6.57;4.88;;;;;;;20.72;77.87;69070.72;5049104;28;20052;-78
2022/07/09 10:13:23;;;;;;;6.45;4.75;;;;;;;20.81;78.99;69083.13;5046614;28;20613;-76
2022/07/09 10:15:50;;;;;;;6.65;5.10;;;;;;;20.79;78.08;69078.69;5041176;28;20412;-78
2022/07/09 10:18:18;;;;;;;6.90;5.13;;;;;;;20.80;78.16;69082.56;5041489;28;20053;-78
2022/07/09 10:20:44;;;;;;;8.20;4.65;;;;;;;20.76;78.34;69077.97;5042132;28;20053;-77
2022/07/09 10:23:22;;;;;;;8.10;5.13;;;;;;;20.69;78.44;69069.97;5041656;28;20544;-79
2022/07/09 10:25:52;;;;;;;6.43;5.22;;;;;;;20.69;78.26;69067.84;5047495;28;20045;-78
2022/07/09 10:28:19;;;;;;;7.90;5.38;;;;;;;20.68;77.95;69068.81;5046080;28;20033;-78
2022/07/09 10:30:44;;;;;;;7.65;5.00;;;;;;;20.62;79.77;69056.56;5044612;28;20036;-77
2022/07/09 10:33:12;;;;;;;6.93;4.88;;;;;;;20.64;80.00;69064.25;5047714;28;20494;-80
2022/07/09 10:35:43;;;;;;;6.63;5.30;;;;;;;20.67;78.81;69068.25;5046918;28;20507;-78
2022/07/09 10:38:09;;;;;;;7.45;4.78;;;;;;;20.70;79.91;69071.13;5047975;28;20045;-78
2022/07/09 10:40:38;;;;;;;6.50;4.25;;;;;;;20.90;79.83;69094.00;5045181;28;20114;-77
2022/07/09 10:43:04;;;;;;;7.28;4.63;;;;;;;20.98;78.13;69102.56;5048527;28;20119;-78
2022/07/09 10:45:37;;;;;;;7.75;4.10;;;;;;;20.84;78.03;69081.16;5043663;28;20072;-78
2022/07/09 10:48:06;;;;;;;6.38;4.30;;;;;;;20.90;78.68;69094.00;5047545;28;20041;-77
2022/07/09 10:50:52;;;;;;;;;;;;;;;20.98;78.94;69097.16;5043904;28;20041;-78
2022/07/09 10:53:17;;;;;;;5.78;4.32;;;;;;;20.81;78.75;69081.00;5046909;28;19998;-77
2022/07/09 10:55:44;;;;;;;5.57;4.25;;;;;;;20.94;78.66;69095.88;5046678;28;20068;-79
2022/07/09 10:58:18;;;;;;;5.18;3.90;;;;;;;21.10;79.88;69113.03;5048172;28;20459;-79
2022/07/09 11:00:43;;;;;;;5.63;3.45;;;;;;;21.31;76.88;69139.19;5039492;28;20614;-78
2022/07/09 11:03:09;;;;;;;4.93;3.40;;;;;;;21.38;74.78;69147.78;5047615;28;20049;-78
2022/07/09 11:05:44;;;;;;;5.20;3.60;;;;;;;21.41;74.29;69147.94;5042641;28;20044;-79
2022/07/09 11:08:10;;;;;;;5.18;3.20;;;;;;;21.48;74.85;69158.66;5047394;28;20037;-78
2022/07/09 11:10:37;;;;;;;4.57;3.20;;;;;;;21.57;74.91;69165.66;5044432;28;20088;-77
2022/07/09 11:13:06;;;;;;;3.95;2.83;;;;;;;21.83;73.07;69198.13;5047585;28;20037;-80
2022/07/09 11:15:34;;;;;;;3.83;2.83;;;;;;;21.88;73.37;69203.28;5044260;28;20033;-79
2022/07/09 11:18:11;;;;;;;3.75;2.17;;;;;;;21.77;72.44;69185.28;5046895;28;20070;-77
2022/07/09 11:20:44;;;;;;;5.47;2.28;;;;;;;21.69;73.14;69181.53;5045741;28;20044;-78
2022/07/09 11:23:11;;;;;;;3.15;2.25;;;;;;;21.78;72.33;69191.84;5052393;28;20494;-77
2022/07/09 11:25:37;;;;;;;4.25;2.50;;;;;;;21.75;71.37;69182.97;5049966;28;20051;-78
2022/07/09 11:28:05;;;;;;;4.70;2.28;;;;;;;21.76;73.22;69187.41;5052310;28;20041;-80
2022/07/09 11:30:32;;;;;;;8.50;2.20;;;;;;;21.90;71.34;69202.88;5049896;28;20386;-78
2022/07/09 11:32:58;;;;;;;4.22;2.50;;;;;;;21.72;72.14;69182.25;5049899;28;20045;-79
2022/07/09 11:35:31;;;;;;;3.17;2.20;;;;;;;22.08;71.86;69220.75;5051568;28;20040;-80
2022/07/09 11:37:57;;;;;;;4.07;2.40;;;;;;;;;;5055427;28;20143;-78
2022/07/09 11:40:23;;;;;;;3.25;2.25;;;;;;;;;;5048187;28;20124;-79
2022/07/09 11:42:51;;;;;;;4.22;2.10;;;;;;;21.99;69.79;69212.59;5052000;28;20049;-80
2022/07/09 11:45:24;;;;;;;3.45;1.80;;;;;;;21.83;69.01;69194.84;5052199;28;20071;-78
2022/07/09 11:47:50;;;;;;;5.05;2.03;;;;;;;21.89;68.04;69203.84;5049646;28;20131;-79
2022/07/09 11:50:20;;;;;;;3.15;1.90;;;;;;;21.98;68.53;69208.72;5046758;28;20167;-77
2022/07/09 11:52:48;;;;;;;3.80;1.48;;;;;;;22.27;66.90;69244.13;5049628;28;20047;-78
2022/07/09 11:55:19;;;;;;;4.13;1.67;;;;;;;22.41;66.29;69262.28;5049152;28;20498;-78